PWSweather.com
Personal Weather Stations
Station Observations
KCTCOLEB1
Sandy Brook, Colebrook, CT 06021

Sandy BrookColebrook, CT 06021

Lat: 42.0018, Lon: -73.0825

Elevation: 935

Station Type: Davis Vantage Pro2 + Solar + UV

Latest ConditionsUpdated 8:10:01 PM EDT Friday, Jul 1, 2016
Currently Today's Max Today's Min Today's Average
Temperature 67.7°F19.8°C 80.2°F26.8°C 54.8°F12.7°C 66.7°F19.3°C
Dew Point 66.5°F19.2°C 68.2°F20.1°C 53.4°F11.9°C 61.0°F16.1°C
Winds Calm Calm 3.5 mph SE5.6 kmh SE - 0.5 mph 0.8 kmh
Wind Gusts -- 9.2 mph14.8 kmh - -
Humidity 96% 98% 57% 83%
Pressure 29.82 in1009.8 mb 30.01 in1016.3 mb 29.82 in1009.8 mb -
Precipitation - 0.26 in6.6 mm - -
Hour Temp Dew Point Humidity Winds Wind Gusts Pressure Precip Precip Rate Daily Precip Total
08:10 PM 67.7°F19.8°C 66.5°F19.2°C 96% Calm Calm -- 29.82 in1009.8 mb - 0.00 in0.0 mm 0.26 in6.6 mm
08:00 PM 67.5°F19.7°C 66.3°F19.1°C 96% Calm Calm 1.2 mph1.9 kmh 29.82 in1009.8 mb - 0.00 in0.0 mm 0.26 in6.6 mm
07:50 PM 67.4°F19.7°C 66.0°F18.9°C 95% Calm Calm -- 29.82 in1009.8 mb - 0.00 in0.0 mm 0.26 in6.6 mm
07:40 PM 67.4°F19.7°C 65.9°F18.8°C 95% Calm Calm -- 29.82 in1009.8 mb - 0.00 in0.0 mm 0.26 in6.6 mm
07:30 PM 67.4°F19.7°C 65.6°F18.7°C 94% Calm Calm -- 29.82 in1009.8 mb - 0.00 in0.0 mm 0.26 in6.6 mm
07:20 PM 67.4°F19.7°C 65.6°F18.7°C 94% Calm Calm -- 29.82 in1009.8 mb - 0.01 in0.3 mm 0.26 in6.6 mm
07:10 PM 67.5°F19.7°C 65.4°F18.6°C 93% Calm Calm -- 29.83 in1010.2 mb - 0.00 in0.0 mm 0.25 in6.4 mm
07:00 PM 67.6°F19.8°C 65.2°F18.4°C 92% Calm Calm -- 29.84 in1010.5 mb - 0.01 in0.3 mm 0.25 in6.4 mm
06:50 PM 68.0°F20.0°C 65.3°F18.5°C 91% Calm Calm -- 29.85 in1010.8 mb - 0.02 in0.5 mm 0.24 in6.1 mm
06:40 PM 68.4°F20.2°C 65.0°F18.3°C 89% Calm Calm -- 29.86 in1011.2 mb - 0.02 in0.5 mm 0.22 in5.6 mm
06:30 PM 69.5°F20.8°C 66.5°F19.2°C 90% Calm Calm 1.2 mph1.9 kmh 29.86 in1011.2 mb - 0.02 in0.5 mm 0.20 in5.1 mm
06:20 PM 70.2°F21.2°C 67.8°F19.9°C 92% 1.2 mph NE1.9 kmh NE 2.3 mph3.7 kmh 29.85 in1010.8 mb - 0.10 in2.5 mm 0.18 in4.6 mm
06:10 PM 70.8°F21.6°C 67.7°F19.8°C 90% Calm Calm 1.2 mph1.9 kmh 29.86 in1011.2 mb - 0.03 in0.8 mm 0.08 in2.0 mm
06:00 PM 71.3°F21.8°C 67.9°F19.9°C 89% Calm Calm -- 29.86 in1011.2 mb - 0.02 in0.5 mm 0.05 in1.3 mm
05:50 PM 71.9°F22.2°C 68.2°F20.1°C 88% Calm Calm -- 29.85 in1010.8 mb - 0.02 in0.5 mm 0.03 in0.8 mm
05:40 PM 72.4°F22.4°C 67.9°F19.9°C 86% Calm Calm -- 29.84 in1010.5 mb - 0.02 in0.5 mm 0.02 in0.5 mm
05:30 PM 73.0°F22.8°C 67.5°F19.7°C 83% 2.3 mph ESE3.7 kmh ESE 5.8 mph9.3 kmh 29.85 in1010.8 mb - 0.00 in0.0 mm 0.00 in0.0 mm
05:20 PM 73.2°F22.9°C 67.0°F19.4°C 81% Calm Calm 1.2 mph1.9 kmh 29.84 in1010.5 mb - 0.00 in0.0 mm 0.00 in0.0 mm
05:10 PM 73.4°F23.0°C 66.9°F19.4°C 80% 1.2 mph SE1.9 kmh SE 3.5 mph5.6 kmh 29.84 in1010.5 mb - 0.00 in0.0 mm 0.00 in0.0 mm
05:00 PM 73.6°F23.1°C 67.0°F19.4°C 80% Calm Calm 1.2 mph1.9 kmh 29.84 in1010.5 mb - 0.00 in0.0 mm 0.00 in0.0 mm
04:50 PM 73.6°F23.1°C 66.7°F19.3°C 79% Calm Calm 2.3 mph3.7 kmh 29.84 in1010.5 mb - 0.00 in0.0 mm 0.00 in0.0 mm
04:40 PM 73.8°F23.2°C 66.8°F19.3°C 79% 1.2 mph ESE1.9 kmh ESE 5.8 mph9.3 kmh 29.85 in1010.8 mb - 0.00 in0.0 mm 0.00 in0.0 mm
04:30 PM 74.0°F23.3°C 66.3°F19.1°C 77% 1.2 mph SSE1.9 kmh SSE 3.5 mph5.6 kmh 29.85 in1010.8 mb - 0.00 in0.0 mm 0.00 in0.0 mm
04:20 PM 74.5°F23.6°C 66.4°F19.1°C 76% Calm Calm 2.3 mph3.7 kmh 29.85 in1010.8 mb - 0.00 in0.0 mm 0.00 in0.0 mm
04:10 PM 74.9°F23.8°C 66.4°F19.1°C 75% 1.2 mph SSW1.9 kmh SSW 3.5 mph5.6 kmh 29.86 in1011.2 mb - 0.00 in0.0 mm 0.00 in0.0 mm
04:00 PM 75.3°F24.1°C 66.4°F19.1°C 74% Calm Calm 1.2 mph1.9 kmh 29.86 in1011.2 mb - 0.00 in0.0 mm 0.00 in0.0 mm
03:50 PM 75.8°F24.3°C 66.1°F18.9°C 72% Calm Calm -- 29.86 in1011.2 mb - 0.00 in0.0 mm 0.00 in0.0 mm
03:40 PM 76.2°F24.6°C 65.7°F18.7°C 70% Calm Calm 1.2 mph1.9 kmh 29.86 in1011.2 mb - 0.00 in0.0 mm 0.00 in0.0 mm
03:30 PM 76.7°F24.8°C 66.2°F19.0°C 70% Calm Calm 1.2 mph1.9 kmh 29.86 in1011.2 mb - 0.00 in0.0 mm 0.00 in0.0 mm
03:20 PM 77.5°F25.3°C 65.3°F18.5°C 66% 2.3 mph SE3.7 kmh SE 3.5 mph5.6 kmh 29.87 in1011.5 mb - 0.00 in0.0 mm 0.00 in0.0 mm
03:10 PM 78.5°F25.8°C 66.6°F19.2°C 67% 1.2 mph ESE1.9 kmh ESE 2.3 mph3.7 kmh 29.87 in1011.5 mb - 0.00 in0.0 mm 0.00 in0.0 mm
03:00 PM 78.5°F25.8°C 66.2°F19.0°C 66% 1.2 mph ESE1.9 kmh ESE -- 29.87 in1011.5 mb - 0.00 in0.0 mm 0.00 in0.0 mm
02:50 PM 79.1°F26.2°C 67.6°F19.8°C 68% 1.2 mph SSE1.9 kmh SSE 3.5 mph5.6 kmh 29.88 in1011.9 mb - 0.00 in0.0 mm 0.00 in0.0 mm
02:40 PM 79.3°F26.3°C 67.0°F19.4°C 66% 1.2 mph S1.9 kmh S 3.5 mph5.6 kmh 29.89 in1012.2 mb - 0.00 in0.0 mm 0.00 in0.0 mm
02:30 PM 79.0°F26.1°C 67.1°F19.5°C 67% 2.3 mph NE3.7 kmh NE 2.3 mph3.7 kmh 29.89 in1012.2 mb - 0.00 in0.0 mm 0.00 in0.0 mm
02:20 PM 79.1°F26.2°C 67.2°F19.6°C 67% 1.2 mph E1.9 kmh E 1.2 mph1.9 kmh 29.89 in1012.2 mb - 0.00 in0.0 mm 0.00 in0.0 mm
02:10 PM 79.4°F26.3°C 66.6°F19.2°C 65% 2.3 mph SE3.7 kmh SE 3.5 mph5.6 kmh 29.90 in1012.5 mb - 0.00 in0.0 mm 0.00 in0.0 mm
02:00 PM 79.9°F26.6°C 67.1°F19.5°C 65% 1.2 mph ESE1.9 kmh ESE 3.5 mph5.6 kmh 29.90 in1012.5 mb - 0.00 in0.0 mm 0.00 in0.0 mm
01:50 PM 79.3°F26.3°C 66.5°F19.2°C 65% 1.2 mph SE1.9 kmh SE 5.8 mph9.3 kmh 29.91 in1012.9 mb - 0.00 in0.0 mm 0.00 in0.0 mm
01:40 PM 79.3°F26.3°C 66.1°F18.9°C 64% 1.2 mph ESE1.9 kmh ESE 5.8 mph9.3 kmh 29.92 in1013.2 mb - 0.00 in0.0 mm 0.00 in0.0 mm
01:30 PM 79.7°F26.5°C 65.1°F18.4°C 61% 1.2 mph WSW1.9 kmh WSW 2.3 mph3.7 kmh 29.92 in1013.2 mb - 0.00 in0.0 mm 0.00 in0.0 mm
01:20 PM 80.2°F26.8°C 65.1°F18.4°C 60% 2.3 mph E3.7 kmh E 3.5 mph5.6 kmh 29.92 in1013.2 mb - 0.00 in0.0 mm 0.00 in0.0 mm
01:10 PM 79.6°F26.4°C 65.0°F18.3°C 61% 1.2 mph SSW1.9 kmh SSW 2.3 mph3.7 kmh 29.93 in1013.5 mb - 0.00 in0.0 mm 0.00 in0.0 mm
01:00 PM 79.8°F26.6°C 63.7°F17.6°C 58% 1.2 mph S1.9 kmh S 3.5 mph5.6 kmh 29.93 in1013.5 mb - 0.00 in0.0 mm 0.00 in0.0 mm
12:50 PM 79.8°F26.6°C 63.2°F17.3°C 57% 2.3 mph SSE3.7 kmh SSE 6.9 mph11.1 kmh 29.94 in1013.9 mb - 0.00 in0.0 mm 0.00 in0.0 mm
12:40 PM 79.4°F26.3°C 64.3°F17.9°C 60% 2.3 mph S3.7 kmh S 3.5 mph5.6 kmh 29.94 in1013.9 mb - 0.00 in0.0 mm 0.00 in0.0 mm
12:30 PM 78.9°F26.1°C 63.4°F17.4°C 59% 2.3 mph E3.7 kmh E 2.3 mph3.7 kmh 29.94 in1013.9 mb - 0.00 in0.0 mm 0.00 in0.0 mm
12:20 PM 78.3°F25.7°C 64.2°F17.9°C 62% Calm Calm 1.2 mph1.9 kmh 29.94 in1013.9 mb - 0.00 in0.0 mm 0.00 in0.0 mm
12:10 PM 79.2°F26.2°C 64.1°F17.8°C 60% 1.2 mph ESE1.9 kmh ESE 2.3 mph3.7 kmh 29.95 in1014.2 mb - 0.00 in0.0 mm 0.00 in0.0 mm
12:00 PM 79.3°F26.3°C 64.7°F18.2°C 61% 1.2 mph ESE1.9 kmh ESE 1.2 mph1.9 kmh 29.95 in1014.2 mb - 0.00 in0.0 mm 0.00 in0.0 mm
11:50 AM 79.3°F26.3°C 63.7°F17.6°C 59% 1.2 mph SW1.9 kmh SW 2.3 mph3.7 kmh 29.95 in1014.2 mb - 0.00 in0.0 mm 0.00 in0.0 mm
11:40 AM 79.2°F26.2°C 63.6°F17.6°C 59% 3.5 mph E5.6 kmh E 4.6 mph7.4 kmh 29.94 in1013.9 mb - 0.00 in0.0 mm 0.00 in0.0 mm
11:30 AM 79.3°F26.3°C 62.7°F17.1°C 57% 2.3 mph SSE3.7 kmh SSE 3.5 mph5.6 kmh 29.94 in1013.9 mb - 0.00 in0.0 mm 0.00 in0.0 mm
11:20 AM 79.3°F26.3°C 62.7°F17.1°C 57% 2.3 mph SE3.7 kmh SE 4.6 mph7.4 kmh 29.95 in1014.2 mb - 0.00 in0.0 mm 0.00 in0.0 mm
11:10 AM 78.6°F25.9°C 65.4°F18.6°C 64% 1.2 mph E1.9 kmh E 3.5 mph5.6 kmh 29.95 in1014.2 mb - 0.00 in0.0 mm 0.00 in0.0 mm
11:00 AM 77.6°F25.3°C 63.0°F17.2°C 61% Calm Calm 2.3 mph3.7 kmh 29.95 in1014.2 mb - 0.00 in0.0 mm 0.00 in0.0 mm
10:50 AM 77.3°F25.2°C 62.8°F17.1°C 61% Calm Calm 2.3 mph3.7 kmh 29.95 in1014.2 mb - 0.00 in0.0 mm 0.00 in0.0 mm
10:40 AM 77.3°F25.2°C 64.2°F17.9°C 64% 1.2 mph ESE1.9 kmh ESE 2.3 mph3.7 kmh 29.95 in1014.2 mb - 0.00 in0.0 mm 0.00 in0.0 mm
10:30 AM 76.8°F24.9°C 63.2°F17.3°C 63% Calm Calm -- 29.95 in1014.2 mb - 0.00 in0.0 mm 0.00 in0.0 mm
10:20 AM 76.1°F24.5°C 61.6°F16.4°C 61% 2.3 mph NE3.7 kmh NE 6.9 mph11.1 kmh 29.95 in1014.2 mb - 0.00 in0.0 mm 0.00 in0.0 mm
10:10 AM 75.2°F24.0°C 62.7°F17.1°C 65% 2.3 mph SE3.7 kmh SE 9.2 mph14.8 kmh 29.96 in1014.6 mb - 0.00 in0.0 mm 0.00 in0.0 mm
10:00 AM 74.4°F23.6°C 61.9°F16.6°C 65% 3.5 mph SE5.6 kmh SE 5.8 mph9.3 kmh 29.96 in1014.6 mb - 0.00 in0.0 mm 0.00 in0.0 mm
09:50 AM 73.9°F23.3°C 67.0°F19.4°C 79% Calm Calm 2.3 mph3.7 kmh 29.96 in1014.6 mb - 0.00 in0.0 mm 0.00 in0.0 mm
09:40 AM 71.8°F22.1°C 66.4°F19.1°C 83% 1.2 mph S1.9 kmh S 3.5 mph5.6 kmh 29.96 in1014.6 mb - 0.00 in0.0 mm 0.00 in0.0 mm
09:30 AM 69.5°F20.8°C 65.5°F18.6°C 87% 1.2 mph ESE1.9 kmh ESE 2.3 mph3.7 kmh 29.97 in1014.9 mb - 0.00 in0.0 mm 0.00 in0.0 mm
09:20 AM 66.9°F19.4°C 65.5°F18.6°C 95% 1.2 mph SW1.9 kmh SW 2.3 mph3.7 kmh 29.97 in1014.9 mb - 0.00 in0.0 mm 0.00 in0.0 mm
09:10 AM 64.9°F18.3°C 64.4°F18.0°C 98% Calm Calm 2.3 mph3.7 kmh 29.97 in1014.9 mb - 0.00 in0.0 mm 0.00 in0.0 mm
09:00 AM 63.8°F17.7°C 63.3°F17.4°C 98% Calm Calm -- 29.97 in1014.9 mb - 0.00 in0.0 mm 0.00 in0.0 mm
08:50 AM 62.9°F17.2°C 62.4°F16.9°C 98% Calm Calm -- 29.97 in1014.9 mb - 0.00 in0.0 mm 0.00 in0.0 mm
08:40 AM 61.8°F16.6°C 61.3°F16.3°C 98% Calm Calm -- 29.98 in1015.2 mb - 0.00 in0.0 mm 0.00 in0.0 mm
08:30 AM 60.8°F16.0°C 60.2°F15.7°C 98% Calm Calm -- 29.98 in1015.2 mb - 0.00 in0.0 mm 0.00 in0.0 mm
08:20 AM 59.9°F15.5°C 59.4°F15.2°C 98% Calm Calm -- 29.98 in1015.2 mb - 0.00 in0.0 mm 0.00 in0.0 mm
08:10 AM 59.1°F15.1°C 58.5°F14.7°C 98% Calm Calm -- 29.98 in1015.2 mb - 0.00 in0.0 mm 0.00 in0.0 mm
08:00 AM 58.2°F14.6°C 57.6°F14.2°C 98% Calm Calm -- 29.98 in1015.2 mb - 0.00 in0.0 mm 0.00 in0.0 mm
07:50 AM 57.3°F14.1°C 56.7°F13.7°C 98% Calm Calm -- 29.98 in1015.2 mb - 0.00 in0.0 mm 0.00 in0.0 mm
07:40 AM 56.5°F13.6°C 55.7°F13.2°C 97% Calm Calm -- 29.99 in1015.6 mb - 0.00 in0.0 mm 0.00 in0.0 mm
07:30 AM 56.0°F13.3°C 55.1°F12.8°C 97% Calm Calm -- 29.99 in1015.6 mb - 0.00 in0.0 mm 0.00 in0.0 mm
07:20 AM 55.6°F13.1°C 54.7°F12.6°C 97% Calm Calm -- 30.00 in1015.9 mb - 0.00 in0.0 mm 0.00 in0.0 mm
07:10 AM 55.3°F12.9°C 54.1°F12.3°C 96% Calm Calm -- 30.00 in1015.9 mb - 0.00 in0.0 mm 0.00 in0.0 mm
07:00 AM 55.0°F12.8°C 53.9°F12.2°C 96% Calm Calm -- 30.00 in1015.9 mb - 0.00 in0.0 mm 0.00 in0.0 mm
06:50 AM 54.9°F12.7°C 53.5°F11.9°C 95% Calm Calm -- 29.99 in1015.6 mb - 0.00 in0.0 mm 0.00 in0.0 mm
06:40 AM 54.8°F12.7°C 53.4°F11.9°C 95% Calm Calm -- 29.99 in1015.6 mb - 0.00 in0.0 mm 0.00 in0.0 mm
06:30 AM 54.9°F12.7°C 53.5°F11.9°C 95% Calm Calm -- 30.00 in1015.9 mb - 0.00 in0.0 mm 0.00 in0.0 mm
06:20 AM 54.9°F12.7°C 53.5°F11.9°C 95% Calm Calm -- 29.99 in1015.6 mb - 0.00 in0.0 mm 0.00 in0.0 mm
06:10 AM 55.0°F12.8°C 53.6°F12.0°C 95% Calm Calm -- 29.99 in1015.6 mb - 0.00 in0.0 mm 0.00 in0.0 mm
06:00 AM 55.0°F12.8°C 53.6°F12.0°C 95% Calm Calm -- 30.00 in1015.9 mb - 0.00 in0.0 mm 0.00 in0.0 mm
05:50 AM 55.1°F12.8°C 53.7°F12.1°C 95% Calm Calm -- 29.99 in1015.6 mb - 0.00 in0.0 mm 0.00 in0.0 mm
05:40 AM 55.3°F12.9°C 53.9°F12.2°C 95% Calm Calm -- 29.99 in1015.6 mb - 0.00 in0.0 mm 0.00 in0.0 mm
05:30 AM 55.5°F13.1°C 54.1°F12.3°C 95% Calm Calm -- 30.00 in1015.9 mb - 0.00 in0.0 mm 0.00 in0.0 mm
05:20 AM 55.5°F13.1°C 54.1°F12.3°C 95% Calm Calm -- 29.99 in1015.6 mb - 0.00 in0.0 mm 0.00 in0.0 mm
05:10 AM 55.6°F13.1°C 54.2°F12.3°C 95% Calm Calm -- 29.99 in1015.6 mb - 0.00 in0.0 mm 0.00 in0.0 mm
05:00 AM 55.6°F13.1°C 54.2°F12.3°C 95% Calm Calm -- 29.99 in1015.6 mb - 0.00 in0.0 mm 0.00 in0.0 mm
04:50 AM 55.5°F13.1°C 54.1°F12.3°C 95% Calm Calm -- 29.99 in1015.6 mb - 0.00 in0.0 mm 0.00 in0.0 mm
04:40 AM 55.4°F13.0°C 54.0°F12.2°C 95% Calm Calm -- 29.99 in1015.6 mb - 0.00 in0.0 mm 0.00 in0.0 mm
04:30 AM 55.3°F12.9°C 53.9°F12.2°C 95% Calm Calm -- 29.99 in1015.6 mb - 0.00 in0.0 mm 0.00 in0.0 mm
04:20 AM 55.3°F12.9°C 53.9°F12.2°C 95% Calm Calm -- 29.99 in1015.6 mb - 0.00 in0.0 mm 0.00 in0.0 mm
04:10 AM 55.3°F12.9°C 53.6°F12.0°C 94% Calm Calm -- 29.99 in1015.6 mb - 0.00 in0.0 mm 0.00 in0.0 mm
04:00 AM 55.4°F13.0°C 53.7°F12.1°C 94% Calm Calm -- 29.99 in1015.6 mb - 0.00 in0.0 mm 0.00 in0.0 mm
03:50 AM 55.5°F13.1°C 53.8°F12.1°C 94% Calm Calm -- 29.99 in1015.6 mb - 0.00 in0.0 mm 0.00 in0.0 mm
03:40 AM 55.8°F13.2°C 54.1°F12.3°C 94% Calm Calm -- 29.99 in1015.6 mb - 0.00 in0.0 mm 0.00 in0.0 mm
03:30 AM 56.0°F13.3°C 54.0°F12.2°C 93% Calm Calm -- 29.99 in1015.6 mb - 0.00 in0.0 mm 0.00 in0.0 mm
03:20 AM 56.1°F13.4°C 54.4°F12.4°C 94% Calm Calm -- 29.99 in1015.6 mb - 0.00 in0.0 mm 0.00 in0.0 mm
03:10 AM 56.3°F13.5°C 54.3°F12.4°C 93% Calm Calm -- 29.99 in1015.6 mb - 0.00 in0.0 mm 0.00 in0.0 mm
03:00 AM 56.5°F13.6°C 54.5°F12.5°C 93% Calm Calm -- 29.99 in1015.6 mb - 0.00 in0.0 mm 0.00 in0.0 mm
02:50 AM 56.6°F13.7°C 54.6°F12.6°C 93% Calm Calm -- 30.00 in1015.9 mb - 0.00 in0.0 mm 0.00 in0.0 mm
02:40 AM 56.7°F13.7°C 55.0°F12.8°C 94% Calm Calm -- 30.00 in1015.9 mb - 0.00 in0.0 mm 0.00 in0.0 mm
02:30 AM 56.8°F13.8°C 55.1°F12.8°C 94% Calm Calm -- 30.00 in1015.9 mb - 0.00 in0.0 mm 0.00 in0.0 mm
02:20 AM 56.8°F13.8°C 55.1°F12.8°C 94% Calm Calm -- 30.01 in1016.3 mb - 0.00 in0.0 mm 0.00 in0.0 mm
02:10 AM 56.7°F13.7°C 55.0°F12.8°C 94% Calm Calm -- 30.01 in1016.3 mb - 0.00 in0.0 mm 0.00 in0.0 mm
02:00 AM 56.8°F13.8°C 54.8°F12.7°C 93% Calm Calm -- 30.01 in1016.3 mb - 0.00 in0.0 mm 0.00 in0.0 mm
01:50 AM 56.9°F13.8°C 54.9°F12.7°C 93% Calm Calm -- 30.00 in1015.9 mb - 0.00 in0.0 mm 0.00 in0.0 mm
01:40 AM 57.1°F13.9°C 55.1°F12.8°C 93% Calm Calm -- 30.00 in1015.9 mb - 0.00 in0.0 mm 0.00 in0.0 mm
01:30 AM 57.3°F14.1°C 55.3°F12.9°C 93% Calm Calm -- 30.00 in1015.9 mb - 0.00 in0.0 mm 0.00 in0.0 mm
01:20 AM 57.5°F14.2°C 55.2°F12.9°C 92% Calm Calm -- 30.00 in1015.9 mb - 0.00 in0.0 mm 0.00 in0.0 mm
01:10 AM 57.7°F14.3°C 55.4°F13.0°C 92% Calm Calm -- 30.00 in1015.9 mb - 0.00 in0.0 mm 0.00 in0.0 mm
01:00 AM 58.0°F14.4°C 55.7°F13.2°C 92% Calm Calm -- 30.00 in1015.9 mb - 0.00 in0.0 mm 0.00 in0.0 mm
12:50 AM 58.3°F14.6°C 56.0°F13.3°C 92% Calm Calm -- 30.00 in1015.9 mb - 0.00 in0.0 mm 0.00 in0.0 mm
12:40 AM 58.6°F14.8°C 56.0°F13.3°C 91% Calm Calm -- 30.00 in1015.9 mb - 0.00 in0.0 mm 0.00 in0.0 mm
12:30 AM 58.9°F14.9°C 56.3°F13.5°C 91% Calm Calm -- 30.00 in1015.9 mb - 0.00 in0.0 mm 0.00 in0.0 mm
12:20 AM 59.1°F15.1°C 56.2°F13.4°C 90% Calm Calm -- 30.00 in1015.9 mb - 0.00 in0.0 mm 0.00 in0.0 mm
12:10 AM 59.4°F15.2°C 56.8°F13.8°C 91% Calm Calm -- 30.00 in1015.9 mb - 0.00 in0.0 mm 0.00 in0.0 mm
12:00 AM 59.7°F15.4°C 57.1°F13.9°C 91% Calm Calm -- 30.00 in1015.9 mb - 0.00 in0.0 mm 0.00 in0.0 mm